Time,TemperatureF,DewpointF,PressureIn,WindDirection,WindDirectionDegrees,WindSpeedMPH,WindSpeedGustMPH,Humidity,HourlyPrecipIn,Conditions,Clouds,dailyrainin,SolarRadiationWatts/m^2,SoftwareType,DateUTC
2013-07-12 00:01:00,63.0,62.0,-100.00,South,175,1.0,4.0,96,0.00,,,0.01,0.000000,,2013-07-12 04:01:00,
2013-07-12 00:32:00,61.0,60.0,-100.00,SW,215,2.0,4.0,97,0.00,,,0.01,0.000000,,2013-07-12 04:32:00,
2013-07-12 00:43:00,61.0,60.0,-100.00,SW,215,2.0,4.0,97,0.00,,,0.01,0.000000,,2013-07-12 04:43:00,
2013-07-12 00:53:00,61.0,60.0,-100.00,SW,215,2.0,4.0,97,0.00,,,0.01,0.000000,,2013-07-12 04:53:00,
2013-07-12 01:02:00,61.0,60.0,-100.00,SW,215,2.0,4.0,97,0.00,,,0.01,0.000000,,2013-07-12 05:02:00,
2013-07-12 01:32:00,60.0,59.0,-100.00,NNW,343,1.0,2.0,98,0.00,,,0.01,0.000000,,2013-07-12 05:32:00,
2013-07-12 01:43:00,60.0,59.0,-100.00,NNW,343,1.0,2.0,98,0.00,,,0.01,0.000000,,2013-07-12 05:43:00,
2013-07-12 01:53:00,60.0,59.0,-100.00,NNW,343,1.0,2.0,98,0.00,,,0.01,0.000000,,2013-07-12 05:53:00,
2013-07-12 02:01:00,60.0,59.0,-100.00,NNW,343,1.0,2.0,98,0.00,,,0.01,0.000000,,2013-07-12 06:01:00,
2013-07-12 02:33:00,58.0,57.0,-100.00,East,90,1.0,2.0,98,0.00,,,0.01,0.000000,,2013-07-12 06:33:00,
2013-07-12 02:42:00,58.0,57.0,-100.00,East,90,1.0,2.0,98,0.00,,,0.01,0.000000,,2013-07-12 06:42:00,
2013-07-12 02:52:00,58.0,57.0,-100.00,East,90,1.0,2.0,98,0.00,,,0.01,0.000000,,2013-07-12 06:52:00,
2013-07-12 03:02:00,58.0,57.0,-100.00,East,90,1.0,2.0,98,0.00,,,0.01,0.000000,,2013-07-12 07:02:00,
2013-07-12 03:33:00,57.0,56.0,-100.00,ENE,74,1.0,3.0,98,0.00,,,0.01,0.000000,,2013-07-12 07:33:00,
2013-07-12 03:43:00,57.0,56.0,-100.00,ENE,74,1.0,3.0,98,0.00,,,0.01,0.000000,,2013-07-12 07:43:00,
2013-07-12 03:52:00,57.0,56.0,-100.00,ENE,74,1.0,3.0,98,0.00,,,0.01,0.000000,,2013-07-12 07:52:00,
2013-07-12 04:02:00,57.0,56.0,-100.00,ENE,74,1.0,3.0,98,0.00,,,0.01,0.000000,,2013-07-12 08:02:00,
2013-07-12 04:32:00,57.0,56.0,-100.00,NNE,28,1.0,4.0,97,0.00,,,0.01,0.000000,,2013-07-12 08:32:00,
2013-07-12 04:42:00,57.0,56.0,-100.00,NNE,28,1.0,4.0,97,0.00,,,0.01,0.000000,,2013-07-12 08:42:00,
2013-07-12 04:53:00,57.0,56.0,-100.00,NNE,28,1.0,4.0,97,0.00,,,0.01,0.000000,,2013-07-12 08:53:00,
2013-07-12 05:02:00,57.0,56.0,-100.00,NNE,28,1.0,4.0,97,0.00,,,0.01,0.000000,,2013-07-12 09:02:00,
2013-07-12 05:32:00,57.0,56.0,-100.00,ESE,108,2.0,5.0,97,0.00,,,0.01,0.000000,,2013-07-12 09:32:00,
2013-07-12 05:43:00,57.0,56.0,-100.00,ESE,108,2.0,5.0,97,0.00,,,0.01,0.000000,,2013-07-12 09:43:00,
2013-07-12 05:52:00,57.0,56.0,-100.00,ESE,108,2.0,5.0,97,0.00,,,0.01,0.000000,,2013-07-12 09:52:00,
2013-07-12 06:01:00,57.0,56.0,-100.00,ESE,108,2.0,5.0,97,0.00,,,0.01,0.000000,,2013-07-12 10:01:00,
2013-07-12 06:33:00,57.0,56.0,-100.00,NE,56,2.0,5.0,96,0.00,,,0.01,14.000000,,2013-07-12 10:33:00,
2013-07-12 06:43:00,57.0,56.0,-100.00,NE,56,2.0,5.0,96,0.00,,,0.01,14.000000,,2013-07-12 10:43:00,
2013-07-12 06:52:00,57.0,56.0,-100.00,NE,56,2.0,5.0,96,0.00,,,0.01,14.000000,,2013-07-12 10:52:00,
2013-07-12 07:02:00,57.0,56.0,-100.00,NE,56,2.0,5.0,96,0.00,,,0.01,14.000000,,2013-07-12 11:02:00,
2013-07-12 07:32:00,59.0,57.0,-100.00,ENE,61,1.0,4.0,93,0.00,,,0.01,56.000000,,2013-07-12 11:32:00,
2013-07-12 07:43:00,59.0,57.0,-100.00,ENE,61,1.0,4.0,93,0.00,,,0.01,56.000000,,2013-07-12 11:43:00,
2013-07-12 07:53:00,59.0,57.0,-100.00,ENE,61,1.0,4.0,93,0.00,,,0.01,56.000000,,2013-07-12 11:53:00,
2013-07-12 08:02:00,59.0,57.0,-100.00,ENE,61,1.0,4.0,93,0.00,,,0.01,56.000000,,2013-07-12 12:02:00,
2013-07-12 08:32:00,63.0,59.0,-100.00,NE,51,2.0,4.0,86,0.00,,,0.01,146.000000,,2013-07-12 12:32:00,
2013-07-12 08:43:00,63.0,59.0,-100.00,NE,51,2.0,4.0,86,0.00,,,0.01,146.000000,,2013-07-12 12:43:00,
2013-07-12 08:53:00,63.0,59.0,-100.00,NE,51,2.0,4.0,86,0.00,,,0.01,146.000000,,2013-07-12 12:53:00,
2013-07-12 09:01:00,63.0,59.0,-100.00,NE,51,2.0,4.0,86,0.00,,,0.01,146.000000,,2013-07-12 13:01:00,
2013-07-12 09:32:00,70.0,60.0,-100.00,NNE,29,3.0,5.0,71,0.00,,,0.01,315.000000,,2013-07-12 13:32:00,
2013-07-12 09:43:00,70.0,60.0,-100.00,NNE,29,3.0,5.0,71,0.00,,,0.01,315.000000,,2013-07-12 13:43:00,
2013-07-12 09:53:00,70.0,60.0,-100.00,NNE,29,3.0,5.0,71,0.00,,,0.01,315.000000,,2013-07-12 13:53:00,
2013-07-12 10:02:00,70.0,60.0,-100.00,NNE,29,3.0,5.0,71,0.00,,,0.01,315.000000,,2013-07-12 14:02:00,
2013-07-12 10:44:00,73.0,60.0,-100.00,NE,38,3.0,6.0,63,0.00,,,0.01,484.000000,,2013-07-12 14:44:00,
2013-07-12 10:53:00,73.0,60.0,-100.00,NE,38,3.0,6.0,63,0.00,,,0.01,484.000000,,2013-07-12 14:53:00,
2013-07-12 11:02:00,73.0,60.0,-100.00,NE,38,3.0,6.0,63,0.00,,,0.01,484.000000,,2013-07-12 15:02:00,
2013-07-12 11:43:00,76.0,59.0,-100.00,NNE,31,3.0,7.0,55,0.00,,,0.01,729.000000,,2013-07-12 15:43:00,
2013-07-12 11:53:00,76.0,59.0,-100.00,NNE,31,3.0,7.0,55,0.00,,,0.01,729.000000,,2013-07-12 15:53:00,
2013-07-12 12:02:00,76.0,59.0,-100.00,NNE,31,3.0,7.0,55,0.00,,,0.01,729.000000,,2013-07-12 16:02:00,
2013-07-12 12:07:00,78.0,58.0,-100.00,NNE,21,3.0,8.0,51,0.00,,,0.00,827.000000,,2013-07-12 16:07:00,
2013-07-12 12:43:00,78.0,58.0,-100.00,NNE,21,3.0,8.0,51,0.00,,,0.00,827.000000,,2013-07-12 16:43:00,
2013-07-12 13:07:00,80.0,55.0,-100.00,SW,223,3.0,7.0,43,0.00,,,0.00,816.000000,,2013-07-12 17:07:00,
2013-07-12 13:40:00,80.0,55.0,-100.00,SW,223,3.0,7.0,43,0.00,,,0.00,816.000000,,2013-07-12 17:40:00,
2013-07-12 13:47:00,80.0,55.0,-100.00,SW,223,3.0,7.0,43,0.00,,,0.00,816.000000,,2013-07-12 17:47:00,
2013-07-12 13:57:00,80.0,55.0,-100.00,SW,223,3.0,7.0,43,0.00,,,0.00,816.000000,,2013-07-12 17:57:00,
2013-07-12 14:35:00,81.0,61.0,-100.00,NNE,16,3.0,6.0,50,0.00,,,0.00,801.000000,,2013-07-12 18:35:00,
2013-07-12 14:52:00,81.0,61.0,-100.00,NNE,16,3.0,6.0,50,0.00,,,0.00,801.000000,,2013-07-12 18:52:00,
2013-07-12 15:05:00,81.0,61.0,-100.00,NNE,16,3.0,6.0,50,0.00,,,0.00,801.000000,,2013-07-12 19:05:00,
2013-07-12 15:59:00,81.0,57.0,-100.00,NE,52,2.0,7.0,44,0.00,,,0.00,497.000000,,2013-07-12 19:59:00,
2013-07-12 16:35:00,82.0,62.0,-100.00,SSW,201,2.0,7.0,51,0.00,,,0.00,638.000000,,2013-07-12 20:35:00,
2013-07-12 16:47:00,82.0,62.0,-100.00,SSW,201,2.0,7.0,51,0.00,,,0.00,638.000000,,2013-07-12 20:47:00,
2013-07-12 16:56:00,82.0,62.0,-100.00,SSW,201,2.0,7.0,51,0.00,,,0.00,638.000000,,2013-07-12 20:56:00,
2013-07-12 17:04:00,82.0,62.0,-100.00,SSW,201,2.0,7.0,51,0.00,,,0.00,638.000000,,2013-07-12 21:04:00,
2013-07-12 17:36:00,82.0,60.0,-100.00,North,356,2.0,6.0,47,0.00,,,0.00,554.000000,,2013-07-12 21:36:00,
2013-07-12 17:49:00,82.0,60.0,-100.00,North,356,2.0,6.0,47,0.00,,,0.00,554.000000,,2013-07-12 21:49:00,
2013-07-12 17:59:00,82.0,60.0,-100.00,North,356,2.0,6.0,47,0.00,,,0.00,554.000000,,2013-07-12 21:59:00,
2013-07-12 18:04:00,82.0,60.0,-100.00,North,356,2.0,6.0,47,0.00,,,0.00,554.000000,,2013-07-12 22:04:00,
2013-07-12 18:47:00,78.0,63.0,-100.00,NNW,345,2.0,5.0,61,0.00,,,0.00,313.000000,,2013-07-12 22:47:00,
2013-07-12 18:56:00,78.0,63.0,-100.00,NNW,345,2.0,5.0,61,0.00,,,0.00,313.000000,,2013-07-12 22:56:00,
2013-07-12 19:06:00,78.0,63.0,-100.00,NNW,345,2.0,5.0,61,0.00,,,0.00,313.000000,,2013-07-12 23:06:00,
2013-07-12 19:07:00,74.0,64.0,-100.00,WNW,303,1.0,6.0,71,0.00,,,0.00,69.000000,,2013-07-12 23:07:00,
2013-07-12 19:37:00,74.0,64.0,-100.00,WNW,303,1.0,6.0,71,0.00,,,0.00,69.000000,,2013-07-12 23:37:00,
2013-07-12 19:45:00,74.0,64.0,-100.00,WNW,303,1.0,6.0,71,0.00,,,0.00,69.000000,,2013-07-12 23:45:00,
2013-07-12 19:58:00,74.0,64.0,-100.00,WNW,303,1.0,6.0,71,0.00,,,0.00,69.000000,,2013-07-12 23:58:00,
2013-07-12 20:34:00,70.0,67.0,-100.00,NW,325,1.0,2.0,89,0.00,,,0.00,21.000000,,2013-07-13 00:34:00,
2013-07-12 20:50:00,70.0,67.0,-100.00,NW,325,1.0,2.0,89,0.00,,,0.00,21.000000,,2013-07-13 00:50:00,
2013-07-12 20:56:00,70.0,67.0,-100.00,NW,325,1.0,2.0,89,0.00,,,0.00,21.000000,,2013-07-13 00:56:00,
2013-07-12 21:05:00,70.0,67.0,-100.00,NW,325,1.0,2.0,89,0.00,,,0.00,21.000000,,2013-07-13 01:05:00,
2013-07-12 21:41:00,66.0,64.0,-100.00,WNW,282,1.0,3.0,94,0.00,,,0.00,4.000000,,2013-07-13 01:41:00,
2013-07-12 21:50:00,66.0,64.0,-100.00,WNW,282,1.0,3.0,94,0.00,,,0.00,4.000000,,2013-07-13 01:50:00,
2013-07-12 21:58:00,66.0,64.0,-100.00,WNW,282,1.0,3.0,94,0.00,,,0.00,4.000000,,2013-07-13 01:58:00,
2013-07-12 22:48:00,65.0,64.0,-100.00,North,355,0.0,2.0,96,0.00,,,0.00,0.000000,,2013-07-13 02:48:00,
2013-07-12 22:56:00,65.0,64.0,-100.00,North,355,0.0,2.0,96,0.00,,,0.00,0.000000,,2013-07-13 02:56:00,
2013-07-12 23:06:00,65.0,64.0,-100.00,North,355,0.0,2.0,96,0.00,,,0.00,0.000000,,2013-07-13 03:06:00,
2013-07-12 23:47:00,64.0,63.0,-100.00,North,1,0.0,0.0,96,0.00,,,0.00,0.000000,,2013-07-13 03:47:00,
2013-07-12 23:58:00,64.0,63.0,-100.00,North,1,0.0,0.0,96,0.00,,,0.00,0.000000,,2013-07-13 03:58:00,